sensor_id;sensor_type;location;lat;lon;timestamp;temperature;humidity
52044;DHT22;38053;53.100;6.078;2023-07-02T00:01:46;15.90;99.90
52044;DHT22;38053;53.100;6.078;2023-07-02T00:04:13;15.90;99.90
52044;DHT22;38053;53.100;6.078;2023-07-02T00:06:45;15.90;99.90
52044;DHT22;38053;53.100;6.078;2023-07-02T00:09:11;15.80;99.90
52044;DHT22;38053;53.100;6.078;2023-07-02T00:11:43;15.80;99.90
52044;DHT22;38053;53.100;6.078;2023-07-02T00:14:09;15.70;99.90
52044;DHT22;38053;53.100;6.078;2023-07-02T00:16:39;15.70;99.90
52044;DHT22;38053;53.100;6.078;2023-07-02T00:19:05;15.70;99.90
52044;DHT22;38053;53.100;6.078;2023-07-02T00:21:31;15.60;99.90
52044;DHT22;38053;53.100;6.078;2023-07-02T00:23:59;15.60;99.90
52044;DHT22;38053;53.100;6.078;2023-07-02T00:26:26;15.50;99.90
52044;DHT22;38053;53.100;6.078;2023-07-02T00:28:54;15.50;99.90
52044;DHT22;38053;53.100;6.078;2023-07-02T00:31:20;15.50;99.90
52044;DHT22;38053;53.100;6.078;2023-07-02T00:33:46;15.50;99.90
52044;DHT22;38053;53.100;6.078;2023-07-02T00:36:15;15.50;99.90
52044;DHT22;38053;53.100;6.078;2023-07-02T00:38:41;15.50;99.90
52044;DHT22;38053;53.100;6.078;2023-07-02T00:41:09;15.40;99.90
52044;DHT22;38053;53.100;6.078;2023-07-02T00:43:34;15.40;99.90
52044;DHT22;38053;53.100;6.078;2023-07-02T00:46:01;15.30;99.90
52044;DHT22;38053;53.100;6.078;2023-07-02T00:48:29;15.40;99.90
52044;DHT22;38053;53.100;6.078;2023-07-02T00:50:55;15.30;99.90
52044;DHT22;38053;53.100;6.078;2023-07-02T00:53:21;15.20;99.90
52044;DHT22;38053;53.100;6.078;2023-07-02T00:55:47;15.20;99.90
52044;DHT22;38053;53.100;6.078;2023-07-02T00:58:12;15.10;99.90
52044;DHT22;38053;53.100;6.078;2023-07-02T01:00:42;15.10;99.90
52044;DHT22;38053;53.100;6.078;2023-07-02T01:03:07;15.10;99.90
52044;DHT22;38053;53.100;6.078;2023-07-02T01:05:33;15.10;99.90
52044;DHT22;38053;53.100;6.078;2023-07-02T01:08:04;15.00;99.90
52044;DHT22;38053;53.100;6.078;2023-07-02T01:10:31;15.00;99.90
52044;DHT22;38053;53.100;6.078;2023-07-02T01:13:19;15.00;99.90
52044;DHT22;38053;53.100;6.078;2023-07-02T01:15:45;14.90;99.90
52044;DHT22;38053;53.100;6.078;2023-07-02T01:18:13;14.90;99.90
52044;DHT22;38053;53.100;6.078;2023-07-02T01:20:40;14.80;99.90
52044;DHT22;38053;53.100;6.078;2023-07-02T01:23:07;14.80;99.90
52044;DHT22;38053;53.100;6.078;2023-07-02T01:25:33;14.80;99.90
52044;DHT22;38053;53.100;6.078;2023-07-02T01:28:03;14.80;99.90
52044;DHT22;38053;53.100;6.078;2023-07-02T01:30:28;14.70;99.90
52044;DHT22;38053;53.100;6.078;2023-07-02T01:32:54;14.60;99.90
52044;DHT22;38053;53.100;6.078;2023-07-02T01:35:20;14.60;99.90
52044;DHT22;38053;53.100;6.078;2023-07-02T01:37:45;14.60;99.90
52044;DHT22;38053;53.100;6.078;2023-07-02T01:40:11;14.50;99.90
52044;DHT22;38053;53.100;6.078;2023-07-02T01:42:37;14.40;99.90
52044;DHT22;38053;53.100;6.078;2023-07-02T01:45:04;14.40;99.90
52044;DHT22;38053;53.100;6.078;2023-07-02T01:47:30;14.40;99.90
52044;DHT22;38053;53.100;6.078;2023-07-02T01:49:56;14.30;99.90
52044;DHT22;38053;53.100;6.078;2023-07-02T01:52:21;14.30;99.90
52044;DHT22;38053;53.100;6.078;2023-07-02T01:54:47;14.30;99.90
52044;DHT22;38053;53.100;6.078;2023-07-02T01:57:13;14.20;99.90
52044;DHT22;38053;53.100;6.078;2023-07-02T01:59:38;14.20;99.90
52044;DHT22;38053;53.100;6.078;2023-07-02T02:02:04;14.20;99.90
52044;DHT22;38053;53.100;6.078;2023-07-02T02:04:30;14.20;99.90
52044;DHT22;38053;53.100;6.078;2023-07-02T02:06:55;14.20;99.90
52044;DHT22;38053;53.100;6.078;2023-07-02T02:09:21;14.10;99.90
52044;DHT22;38053;53.100;6.078;2023-07-02T02:11:50;14.10;99.90
52044;DHT22;38053;53.100;6.078;2023-07-02T02:14:18;14.10;99.90
52044;DHT22;38053;53.100;6.078;2023-07-02T02:16:44;14.10;99.90
52044;DHT22;38053;53.100;6.078;2023-07-02T02:19:13;14.00;99.90
52044;DHT22;38053;53.100;6.078;2023-07-02T02:21:42;14.00;99.90
52044;DHT22;38053;53.100;6.078;2023-07-02T02:24:08;14.00;99.90
52044;DHT22;38053;53.100;6.078;2023-07-02T02:26:34;14.00;99.90
52044;DHT22;38053;53.100;6.078;2023-07-02T02:29:00;13.90;99.90
52044;DHT22;38053;53.100;6.078;2023-07-02T02:31:26;13.90;99.90
52044;DHT22;38053;53.100;6.078;2023-07-02T02:33:53;13.80;99.90
52044;DHT22;38053;53.100;6.078;2023-07-02T02:36:18;13.80;99.90
52044;DHT22;38053;53.100;6.078;2023-07-02T02:38:44;13.80;99.90
52044;DHT22;38053;53.100;6.078;2023-07-02T02:41:09;13.80;99.90
52044;DHT22;38053;53.100;6.078;2023-07-02T02:43:35;13.70;99.90
52044;DHT22;38053;53.100;6.078;2023-07-02T02:46:01;13.80;99.90
52044;DHT22;38053;53.100;6.078;2023-07-02T02:48:27;13.80;99.90
52044;DHT22;38053;53.100;6.078;2023-07-02T02:50:52;13.80;99.90
52044;DHT22;38053;53.100;6.078;2023-07-02T02:53:18;13.80;99.90
52044;DHT22;38053;53.100;6.078;2023-07-02T02:55:44;13.70;99.90
52044;DHT22;38053;53.100;6.078;2023-07-02T02:58:09;13.70;99.90
52044;DHT22;38053;53.100;6.078;2023-07-02T03:00:35;13.70;99.90
52044;DHT22;38053;53.100;6.078;2023-07-02T03:03:01;13.70;99.90
52044;DHT22;38053;53.100;6.078;2023-07-02T03:05:28;13.70;99.90
52044;DHT22;38053;53.100;6.078;2023-07-02T03:07:54;13.70;99.90
52044;DHT22;38053;53.100;6.078;2023-07-02T03:10:19;13.70;99.90
52044;DHT22;38053;53.100;6.078;2023-07-02T03:12:45;13.70;99.90
52044;DHT22;38053;53.100;6.078;2023-07-02T03:15:11;13.70;99.90
52044;DHT22;38053;53.100;6.078;2023-07-02T03:17:36;13.70;99.90
52044;DHT22;38053;53.100;6.078;2023-07-02T03:20:03;13.70;99.90
52044;DHT22;38053;53.100;6.078;2023-07-02T03:22:30;13.80;99.90
52044;DHT22;38053;53.100;6.078;2023-07-02T03:24:55;13.80;99.90
52044;DHT22;38053;53.100;6.078;2023-07-02T03:27:21;13.80;99.90
52044;DHT22;38053;53.100;6.078;2023-07-02T03:29:47;13.80;99.90
52044;DHT22;38053;53.100;6.078;2023-07-02T03:32:12;13.80;99.90
52044;DHT22;38053;53.100;6.078;2023-07-02T03:34:38;13.90;99.90
52044;DHT22;38053;53.100;6.078;2023-07-02T03:37:04;13.90;99.90
52044;DHT22;38053;53.100;6.078;2023-07-02T03:39:30;13.90;99.90
52044;DHT22;38053;53.100;6.078;2023-07-02T03:41:55;14.00;99.90
52044;DHT22;38053;53.100;6.078;2023-07-02T03:44:21;14.00;99.90
52044;DHT22;38053;53.100;6.078;2023-07-02T03:46:47;14.00;99.90
52044;DHT22;38053;53.100;6.078;2023-07-02T03:49:12;14.00;99.90
52044;DHT22;38053;53.100;6.078;2023-07-02T03:51:38;14.00;99.90
52044;DHT22;38053;53.100;6.078;2023-07-02T03:54:04;14.00;99.90
52044;DHT22;38053;53.100;6.078;2023-07-02T03:56:30;14.00;99.90
52044;DHT22;38053;53.100;6.078;2023-07-02T03:58:55;14.10;99.90
52044;DHT22;38053;53.100;6.078;2023-07-02T04:01:21;14.10;99.90
52044;DHT22;38053;53.100;6.078;2023-07-02T04:03:52;14.20;99.90
52044;DHT22;38053;53.100;6.078;2023-07-02T04:06:18;14.20;99.90
52044;DHT22;38053;53.100;6.078;2023-07-02T04:08:44;14.30;99.90
52044;DHT22;38053;53.100;6.078;2023-07-02T04:11:11;14.30;99.90
52044;DHT22;38053;53.100;6.078;2023-07-02T04:13:37;14.40;99.90
52044;DHT22;38053;53.100;6.078;2023-07-02T04:16:03;14.40;99.90
52044;DHT22;38053;53.100;6.078;2023-07-02T04:18:29;14.40;99.90
52044;DHT22;38053;53.100;6.078;2023-07-02T04:20:56;14.50;99.90
52044;DHT22;38053;53.100;6.078;2023-07-02T04:23:22;14.50;99.90
52044;DHT22;38053;53.100;6.078;2023-07-02T04:25:47;14.50;99.90
52044;DHT22;38053;53.100;6.078;2023-07-02T04:28:13;14.50;99.90
52044;DHT22;38053;53.100;6.078;2023-07-02T04:30:39;14.50;99.90
52044;DHT22;38053;53.100;6.078;2023-07-02T04:33:05;14.50;99.90
52044;DHT22;38053;53.100;6.078;2023-07-02T04:35:33;14.50;99.90
52044;DHT22;38053;53.100;6.078;2023-07-02T04:38:00;14.50;99.90
52044;DHT22;38053;53.100;6.078;2023-07-02T04:40:26;14.50;99.90
52044;DHT22;38053;53.100;6.078;2023-07-02T04:42:51;14.50;99.90
52044;DHT22;38053;53.100;6.078;2023-07-02T04:45:24;14.50;99.90
52044;DHT22;38053;53.100;6.078;2023-07-02T04:47:50;14.60;99.90
52044;DHT22;38053;53.100;6.078;2023-07-02T04:50:16;14.60;99.90
52044;DHT22;38053;53.100;6.078;2023-07-02T04:52:42;14.70;99.90
52044;DHT22;38053;53.100;6.078;2023-07-02T04:55:08;14.70;99.90
52044;DHT22;38053;53.100;6.078;2023-07-02T04:57:34;14.70;99.90
52044;DHT22;38053;53.100;6.078;2023-07-02T05:00:00;14.70;99.90
52044;DHT22;38053;53.100;6.078;2023-07-02T05:02:25;14.70;99.90
52044;DHT22;38053;53.100;6.078;2023-07-02T05:04:51;14.70;99.90
52044;DHT22;38053;53.100;6.078;2023-07-02T05:07:16;14.60;99.90
52044;DHT22;38053;53.100;6.078;2023-07-02T05:09:42;14.60;99.90
52044;DHT22;38053;53.100;6.078;2023-07-02T05:12:08;14.50;99.90
52044;DHT22;38053;53.100;6.078;2023-07-02T05:14:34;14.60;99.90
52044;DHT22;38053;53.100;6.078;2023-07-02T05:17:00;14.70;99.90
52044;DHT22;38053;53.100;6.078;2023-07-02T05:19:26;14.80;99.90
52044;DHT22;38053;53.100;6.078;2023-07-02T05:21:52;14.90;99.90
52044;DHT22;38053;53.100;6.078;2023-07-02T05:24:18;15.00;99.90
52044;DHT22;38053;53.100;6.078;2023-07-02T05:26:44;15.10;99.90
52044;DHT22;38053;53.100;6.078;2023-07-02T05:29:10;15.10;99.90
52044;DHT22;38053;53.100;6.078;2023-07-02T05:31:36;15.20;99.90
52044;DHT22;38053;53.100;6.078;2023-07-02T05:34:01;15.20;99.90
52044;DHT22;38053;53.100;6.078;2023-07-02T05:36:27;15.20;99.90
52044;DHT22;38053;53.100;6.078;2023-07-02T05:38:53;15.20;99.90
52044;DHT22;38053;53.100;6.078;2023-07-02T05:41:19;15.20;99.90
52044;DHT22;38053;53.100;6.078;2023-07-02T05:43:45;15.10;99.90
52044;DHT22;38053;53.100;6.078;2023-07-02T05:46:10;15.10;99.90
52044;DHT22;38053;53.100;6.078;2023-07-02T05:48:37;15.00;99.90
52044;DHT22;38053;53.100;6.078;2023-07-02T05:51:03;15.00;99.90
52044;DHT22;38053;53.100;6.078;2023-07-02T05:53:29;15.00;99.90
52044;DHT22;38053;53.100;6.078;2023-07-02T05:55:54;15.00;99.90
52044;DHT22;38053;53.100;6.078;2023-07-02T05:58:21;15.10;99.90
52044;DHT22;38053;53.100;6.078;2023-07-02T06:00:46;15.20;99.90
52044;DHT22;38053;53.100;6.078;2023-07-02T06:03:18;15.40;99.90
52044;DHT22;38053;53.100;6.078;2023-07-02T06:05:49;15.60;99.90
52044;DHT22;38053;53.100;6.078;2023-07-02T06:08:16;15.80;99.90
52044;DHT22;38053;53.100;6.078;2023-07-02T06:10:46;16.00;99.90
52044;DHT22;38053;53.100;6.078;2023-07-02T06:13:12;16.00;99.90
52044;DHT22;38053;53.100;6.078;2023-07-02T06:15:38;15.90;99.90
52044;DHT22;38053;53.100;6.078;2023-07-02T06:18:04;15.80;99.90
52044;DHT22;38053;53.100;6.078;2023-07-02T06:20:30;15.80;99.90
52044;DHT22;38053;53.100;6.078;2023-07-02T06:22:56;15.80;99.90
52044;DHT22;38053;53.100;6.078;2023-07-02T06:25:21;15.80;99.90
52044;DHT22;38053;53.100;6.078;2023-07-02T06:27:47;15.80;99.90
52044;DHT22;38053;53.100;6.078;2023-07-02T06:30:13;15.90;99.90
52044;DHT22;38053;53.100;6.078;2023-07-02T06:32:39;15.90;99.90
52044;DHT22;38053;53.100;6.078;2023-07-02T06:35:05;16.00;99.90
52044;DHT22;38053;53.100;6.078;2023-07-02T06:37:34;16.10;99.90
52044;DHT22;38053;53.100;6.078;2023-07-02T06:39:59;16.20;99.90
52044;DHT22;38053;53.100;6.078;2023-07-02T06:42:25;16.40;99.90
52044;DHT22;38053;53.100;6.078;2023-07-02T06:44:51;16.50;99.90
52044;DHT22;38053;53.100;6.078;2023-07-02T06:47:17;16.50;99.90
52044;DHT22;38053;53.100;6.078;2023-07-02T06:49:43;16.50;99.90
52044;DHT22;38053;53.100;6.078;2023-07-02T06:52:09;16.50;99.90
52044;DHT22;38053;53.100;6.078;2023-07-02T06:54:35;16.50;99.90
52044;DHT22;38053;53.100;6.078;2023-07-02T06:57:01;16.60;99.90
52044;DHT22;38053;53.100;6.078;2023-07-02T06:59:26;16.70;99.90
52044;DHT22;38053;53.100;6.078;2023-07-02T07:01:52;16.80;99.90
52044;DHT22;38053;53.100;6.078;2023-07-02T07:04:18;16.80;99.90
52044;DHT22;38053;53.100;6.078;2023-07-02T07:06:44;16.90;99.90
52044;DHT22;38053;53.100;6.078;2023-07-02T07:09:09;16.90;99.90
52044;DHT22;38053;53.100;6.078;2023-07-02T07:11:35;16.90;99.90
52044;DHT22;38053;53.100;6.078;2023-07-02T07:14:01;16.80;99.90
52044;DHT22;38053;53.100;6.078;2023-07-02T07:16:27;16.70;99.90
52044;DHT22;38053;53.100;6.078;2023-07-02T07:18:53;16.70;99.90
52044;DHT22;38053;53.100;6.078;2023-07-02T07:21:18;16.80;99.90
52044;DHT22;38053;53.100;6.078;2023-07-02T07:23:44;16.80;99.90
52044;DHT22;38053;53.100;6.078;2023-07-02T07:26:10;16.70;99.90
52044;DHT22;38053;53.100;6.078;2023-07-02T07:28:36;16.70;99.90
52044;DHT22;38053;53.100;6.078;2023-07-02T07:31:02;16.80;99.90
52044;DHT22;38053;53.100;6.078;2023-07-02T07:33:28;16.80;99.90
52044;DHT22;38053;53.100;6.078;2023-07-02T07:35:54;17.00;99.90
52044;DHT22;38053;53.100;6.078;2023-07-02T07:38:20;17.30;99.90
52044;DHT22;38053;53.100;6.078;2023-07-02T07:40:46;17.40;99.90
52044;DHT22;38053;53.100;6.078;2023-07-02T07:43:12;17.40;99.90
52044;DHT22;38053;53.100;6.078;2023-07-02T07:45:37;17.30;99.90
52044;DHT22;38053;53.100;6.078;2023-07-02T07:48:06;17.30;99.90
52044;DHT22;38053;53.100;6.078;2023-07-02T07:50:32;17.20;99.90
52044;DHT22;38053;53.100;6.078;2023-07-02T07:52:58;17.10;99.90
52044;DHT22;38053;53.100;6.078;2023-07-02T07:55:24;17.20;99.90
52044;DHT22;38053;53.100;6.078;2023-07-02T07:57:50;17.30;99.90
52044;DHT22;38053;53.100;6.078;2023-07-02T08:00:16;17.40;99.90
52044;DHT22;38053;53.100;6.078;2023-07-02T08:02:46;17.50;99.90
52044;DHT22;38053;53.100;6.078;2023-07-02T08:05:14;17.70;99.90
52044;DHT22;38053;53.100;6.078;2023-07-02T08:07:40;17.80;99.90
52044;DHT22;38053;53.100;6.078;2023-07-02T08:10:06;17.70;99.90
52044;DHT22;38053;53.100;6.078;2023-07-02T08:12:33;17.60;99.90
52044;DHT22;38053;53.100;6.078;2023-07-02T08:14:59;17.40;99.90
52044;DHT22;38053;53.100;6.078;2023-07-02T08:17:25;17.30;99.90
52044;DHT22;38053;53.100;6.078;2023-07-02T08:19:51;17.30;99.90
52044;DHT22;38053;53.100;6.078;2023-07-02T08:22:17;17.50;99.90
52044;DHT22;38053;53.100;6.078;2023-07-02T08:24:42;17.70;99.90
52044;DHT22;38053;53.100;6.078;2023-07-02T08:27:08;17.80;99.90
52044;DHT22;38053;53.100;6.078;2023-07-02T08:29:35;17.60;99.90
52044;DHT22;38053;53.100;6.078;2023-07-02T08:32:01;17.70;99.90
52044;DHT22;38053;53.100;6.078;2023-07-02T08:34:27;17.90;99.90
52044;DHT22;38053;53.100;6.078;2023-07-02T08:36:52;18.10;99.90
52044;DHT22;38053;53.100;6.078;2023-07-02T08:39:18;18.30;99.90
52044;DHT22;38053;53.100;6.078;2023-07-02T08:41:45;18.30;99.90
52044;DHT22;38053;53.100;6.078;2023-07-02T08:44:19;18.20;99.90
52044;DHT22;38053;53.100;6.078;2023-07-02T08:46:46;18.00;99.90
52044;DHT22;38053;53.100;6.078;2023-07-02T08:49:16;17.80;99.90
52044;DHT22;38053;53.100;6.078;2023-07-02T08:51:44;17.70;99.90
52044;DHT22;38053;53.100;6.078;2023-07-02T08:54:10;17.60;99.90
52044;DHT22;38053;53.100;6.078;2023-07-02T08:56:36;17.50;99.90
52044;DHT22;38053;53.100;6.078;2023-07-02T08:59:02;17.50;99.90
52044;DHT22;38053;53.100;6.078;2023-07-02T09:01:27;17.70;99.90
52044;DHT22;38053;53.100;6.078;2023-07-02T09:03:58;17.80;99.90
52044;DHT22;38053;53.100;6.078;2023-07-02T09:06:25;17.80;99.90
52044;DHT22;38053;53.100;6.078;2023-07-02T09:08:51;17.90;99.90
52044;DHT22;38053;53.100;6.078;2023-07-02T09:11:17;17.90;99.90
52044;DHT22;38053;53.100;6.078;2023-07-02T09:13:52;17.90;99.90
52044;DHT22;38053;53.100;6.078;2023-07-02T09:16:25;17.70;99.90
52044;DHT22;38053;53.100;6.078;2023-07-02T09:19:05;17.60;99.90
52044;DHT22;38053;53.100;6.078;2023-07-02T09:24:13;18.20;99.90
52044;DHT22;38053;53.100;6.078;2023-07-02T09:26:42;18.60;99.90
52044;DHT22;38053;53.100;6.078;2023-07-02T09:29:08;18.70;99.90
52044;DHT22;38053;53.100;6.078;2023-07-02T09:31:46;18.60;99.90
52044;DHT22;38053;53.100;6.078;2023-07-02T09:34:12;18.40;99.90
52044;DHT22;38053;53.100;6.078;2023-07-02T09:36:39;18.20;99.90
52044;DHT22;38053;53.100;6.078;2023-07-02T09:39:19;18.00;99.90
52044;DHT22;38053;53.100;6.078;2023-07-02T09:41:47;18.00;99.90
52044;DHT22;38053;53.100;6.078;2023-07-02T09:44:14;18.40;99.90
52044;DHT22;38053;53.100;6.078;2023-07-02T09:46:56;18.70;99.90
52044;DHT22;38053;53.100;6.078;2023-07-02T09:49:24;18.80;99.90
52044;DHT22;38053;53.100;6.078;2023-07-02T09:51:51;18.60;99.90
52044;DHT22;38053;53.100;6.078;2023-07-02T09:54:17;18.40;99.90
52044;DHT22;38053;53.100;6.078;2023-07-02T09:56:45;18.50;99.90
52044;DHT22;38053;53.100;6.078;2023-07-02T09:59:11;18.70;99.90
52044;DHT22;38053;53.100;6.078;2023-07-02T10:01:37;18.80;99.90
52044;DHT22;38053;53.100;6.078;2023-07-02T10:04:17;18.90;99.90
52044;DHT22;38053;53.100;6.078;2023-07-02T10:06:54;19.10;99.90
52044;DHT22;38053;53.100;6.078;2023-07-02T10:09:21;19.10;99.90
52044;DHT22;38053;53.100;6.078;2023-07-02T10:11:59;19.00;99.90
52044;DHT22;38053;53.100;6.078;2023-07-02T10:14:25;18.90;99.90
52044;DHT22;38053;53.100;6.078;2023-07-02T10:16:53;18.80;99.90
52044;DHT22;38053;53.100;6.078;2023-07-02T10:19:20;18.70;99.90
52044;DHT22;38053;53.100;6.078;2023-07-02T10:21:46;18.70;99.90
52044;DHT22;38053;53.100;6.078;2023-07-02T10:24:16;18.70;99.90
52044;DHT22;38053;53.100;6.078;2023-07-02T10:29:23;18.70;99.90
52044;DHT22;38053;53.100;6.078;2023-07-02T10:31:55;18.70;99.90
52044;DHT22;38053;53.100;6.078;2023-07-02T10:34:30;18.80;99.90
52044;DHT22;38053;53.100;6.078;2023-07-02T10:36:56;18.90;99.90
52044;DHT22;38053;53.100;6.078;2023-07-02T10:39:22;19.10;99.90
52044;DHT22;38053;53.100;6.078;2023-07-02T10:41:48;19.00;99.90
52044;DHT22;38053;53.100;6.078;2023-07-02T10:44:14;18.90;99.90
52044;DHT22;38053;53.100;6.078;2023-07-02T10:46:48;18.90;99.90
52044;DHT22;38053;53.100;6.078;2023-07-02T10:49:18;18.80;99.90
52044;DHT22;38053;53.100;6.078;2023-07-02T10:51:44;18.80;99.90
52044;DHT22;38053;53.100;6.078;2023-07-02T10:54:10;18.90;99.90
52044;DHT22;38053;53.100;6.078;2023-07-02T10:56:36;19.00;99.90
52044;DHT22;38053;53.100;6.078;2023-07-02T10:59:03;19.00;99.90
52044;DHT22;38053;53.100;6.078;2023-07-02T11:01:33;19.00;99.90
52044;DHT22;38053;53.100;6.078;2023-07-02T11:04:03;19.00;99.90
52044;DHT22;38053;53.100;6.078;2023-07-02T11:06:31;19.00;99.90
52044;DHT22;38053;53.100;6.078;2023-07-02T11:08:59;18.90;99.90
52044;DHT22;38053;53.100;6.078;2023-07-02T11:11:25;18.80;99.90
52044;DHT22;38053;53.100;6.078;2023-07-02T11:13:52;18.70;99.90
52044;DHT22;38053;53.100;6.078;2023-07-02T11:16:21;18.70;99.90
52044;DHT22;38053;53.100;6.078;2023-07-02T11:18:50;18.80;99.90
52044;DHT22;38053;53.100;6.078;2023-07-02T11:21:16;18.80;99.90
52044;DHT22;38053;53.100;6.078;2023-07-02T11:23:42;18.80;99.90
52044;DHT22;38053;53.100;6.078;2023-07-02T11:26:08;18.80;99.90
52044;DHT22;38053;53.100;6.078;2023-07-02T11:28:34;18.80;99.90
52044;DHT22;38053;53.100;6.078;2023-07-02T11:31:02;19.10;99.90
52044;DHT22;38053;53.100;6.078;2023-07-02T11:33:36;19.30;99.90
52044;DHT22;38053;53.100;6.078;2023-07-02T11:36:04;19.30;99.90
52044;DHT22;38053;53.100;6.078;2023-07-02T11:38:29;19.40;99.90
52044;DHT22;38053;53.100;6.078;2023-07-02T11:40:55;19.60;99.90
52044;DHT22;38053;53.100;6.078;2023-07-02T11:43:21;20.00;99.90
52044;DHT22;38053;53.100;6.078;2023-07-02T11:45:47;20.20;99.90
52044;DHT22;38053;53.100;6.078;2023-07-02T11:48:12;20.10;99.90
52044;DHT22;38053;53.100;6.078;2023-07-02T11:50:38;20.00;99.90
52044;DHT22;38053;53.100;6.078;2023-07-02T11:53:04;20.00;99.90
52044;DHT22;38053;53.100;6.078;2023-07-02T11:55:30;19.90;99.90
52044;DHT22;38053;53.100;6.078;2023-07-02T11:57:56;19.70;99.90
52044;DHT22;38053;53.100;6.078;2023-07-02T12:00:21;19.60;99.90
52044;DHT22;38053;53.100;6.078;2023-07-02T12:02:48;19.50;99.90
52044;DHT22;38053;53.100;6.078;2023-07-02T12:05:14;19.50;99.90
52044;DHT22;38053;53.100;6.078;2023-07-02T12:07:39;19.80;99.90
52044;DHT22;38053;53.100;6.078;2023-07-02T12:10:07;20.30;99.90
52044;DHT22;38053;53.100;6.078;2023-07-02T12:12:32;20.60;99.90
52044;DHT22;38053;53.100;6.078;2023-07-02T12:14:58;20.90;99.90
52044;DHT22;38053;53.100;6.078;2023-07-02T12:17:24;20.80;99.90
52044;DHT22;38053;53.100;6.078;2023-07-02T12:19:50;20.80;99.90
52044;DHT22;38053;53.100;6.078;2023-07-02T12:22:15;20.70;99.90
52044;DHT22;38053;53.100;6.078;2023-07-02T12:24:43;20.60;99.90
52044;DHT22;38053;53.100;6.078;2023-07-02T12:27:09;20.20;99.90
52044;DHT22;38053;53.100;6.078;2023-07-02T12:29:37;19.90;99.90
52044;DHT22;38053;53.100;6.078;2023-07-02T12:32:03;19.70;99.90
52044;DHT22;38053;53.100;6.078;2023-07-02T12:34:29;19.70;99.90
52044;DHT22;38053;53.100;6.078;2023-07-02T12:36:56;19.50;99.90
52044;DHT22;38053;53.100;6.078;2023-07-02T12:39:22;19.40;99.90
52044;DHT22;38053;53.100;6.078;2023-07-02T12:41:47;19.30;99.90
52044;DHT22;38053;53.100;6.078;2023-07-02T12:44:13;19.30;99.90
52044;DHT22;38053;53.100;6.078;2023-07-02T12:46:39;19.10;99.90
52044;DHT22;38053;53.100;6.078;2023-07-02T12:49:05;19.00;99.90
52044;DHT22;38053;53.100;6.078;2023-07-02T12:51:30;18.90;99.90
52044;DHT22;38053;53.100;6.078;2023-07-02T12:53:56;18.80;99.90
52044;DHT22;38053;53.100;6.078;2023-07-02T12:56:22;18.70;99.90
52044;DHT22;38053;53.100;6.078;2023-07-02T12:58:48;18.70;99.90
52044;DHT22;38053;53.100;6.078;2023-07-02T13:01:13;19.00;99.90
52044;DHT22;38053;53.100;6.078;2023-07-02T13:03:47;19.20;99.90
52044;DHT22;38053;53.100;6.078;2023-07-02T13:06:13;19.20;99.90
52044;DHT22;38053;53.100;6.078;2023-07-02T13:08:39;19.10;99.90
52044;DHT22;38053;53.100;6.078;2023-07-02T13:11:05;19.10;99.90
52044;DHT22;38053;53.100;6.078;2023-07-02T13:13:31;19.30;99.90
52044;DHT22;38053;53.100;6.078;2023-07-02T13:15:57;19.30;99.90
52044;DHT22;38053;53.100;6.078;2023-07-02T13:18:23;19.20;99.90
52044;DHT22;38053;53.100;6.078;2023-07-02T13:20:49;19.00;99.90
52044;DHT22;38053;53.100;6.078;2023-07-02T13:23:14;19.00;99.90
52044;DHT22;38053;53.100;6.078;2023-07-02T13:25:40;18.90;99.90
52044;DHT22;38053;53.100;6.078;2023-07-02T13:28:06;18.90;99.90
52044;DHT22;38053;53.100;6.078;2023-07-02T13:30:32;19.00;99.90
52044;DHT22;38053;53.100;6.078;2023-07-02T13:32:58;19.00;99.90
52044;DHT22;38053;53.100;6.078;2023-07-02T13:35:23;18.90;99.90
52044;DHT22;38053;53.100;6.078;2023-07-02T13:37:49;18.80;99.90
52044;DHT22;38053;53.100;6.078;2023-07-02T13:40:15;18.50;99.90
52044;DHT22;38053;53.100;6.078;2023-07-02T13:42:42;18.40;99.90
52044;DHT22;38053;53.100;6.078;2023-07-02T13:45:08;18.30;99.90
52044;DHT22;38053;53.100;6.078;2023-07-02T13:47:35;18.20;99.90
52044;DHT22;38053;53.100;6.078;2023-07-02T13:50:02;18.10;99.90
52044;DHT22;38053;53.100;6.078;2023-07-02T13:52:29;18.10;99.90
52044;DHT22;38053;53.100;6.078;2023-07-02T13:54:56;18.00;99.90
52044;DHT22;38053;53.100;6.078;2023-07-02T13:57:22;18.00;99.90
52044;DHT22;38053;53.100;6.078;2023-07-02T13:59:48;17.90;99.90
52044;DHT22;38053;53.100;6.078;2023-07-02T14:02:13;17.80;99.90
52044;DHT22;38053;53.100;6.078;2023-07-02T14:04:39;17.80;99.90
52044;DHT22;38053;53.100;6.078;2023-07-02T14:07:05;17.90;99.90
52044;DHT22;38053;53.100;6.078;2023-07-02T14:09:31;18.10;99.90
52044;DHT22;38053;53.100;6.078;2023-07-02T14:11:57;18.40;99.90
52044;DHT22;38053;53.100;6.078;2023-07-02T14:14:22;19.00;99.90
52044;DHT22;38053;53.100;6.078;2023-07-02T14:16:48;19.60;99.90
52044;DHT22;38053;53.100;6.078;2023-07-02T14:19:14;19.90;99.90
52044;DHT22;38053;53.100;6.078;2023-07-02T14:21:40;19.90;99.90
52044;DHT22;38053;53.100;6.078;2023-07-02T14:24:06;20.00;99.90
52044;DHT22;38053;53.100;6.078;2023-07-02T14:26:31;20.20;99.90
52044;DHT22;38053;53.100;6.078;2023-07-02T14:28:57;20.70;99.80
52044;DHT22;38053;53.100;6.078;2023-07-02T14:31:23;21.20;99.80
52044;DHT22;38053;53.100;6.078;2023-07-02T14:33:49;21.50;98.90
52044;DHT22;38053;53.100;6.078;2023-07-02T14:36:15;21.30;98.80
52044;DHT22;38053;53.100;6.078;2023-07-02T14:38:41;20.90;98.00
52044;DHT22;38053;53.100;6.078;2023-07-02T14:41:07;20.60;98.40
52044;DHT22;38053;53.100;6.078;2023-07-02T14:43:33;20.40;98.50
52044;DHT22;38053;53.100;6.078;2023-07-02T14:46:00;20.30;98.70
52044;DHT22;38053;53.100;6.078;2023-07-02T14:48:26;20.50;97.70
52044;DHT22;38053;53.100;6.078;2023-07-02T14:50:58;20.60;97.90
52044;DHT22;38053;53.100;6.078;2023-07-02T14:53:25;20.50;96.60
52044;DHT22;38053;53.100;6.078;2023-07-02T14:55:54;20.20;97.10
52044;DHT22;38053;53.100;6.078;2023-07-02T14:58:20;20.00;97.40
52044;DHT22;38053;53.100;6.078;2023-07-02T15:00:47;19.90;97.30
52044;DHT22;38053;53.100;6.078;2023-07-02T15:03:14;19.60;97.30
52044;DHT22;38053;53.100;6.078;2023-07-02T15:05:40;19.50;97.70
52044;DHT22;38053;53.100;6.078;2023-07-02T15:08:08;19.20;97.80
52044;DHT22;38053;53.100;6.078;2023-07-02T15:10:34;19.00;98.40
52044;DHT22;38053;53.100;6.078;2023-07-02T15:13:00;18.70;99.10
52044;DHT22;38053;53.100;6.078;2023-07-02T15:15:26;18.70;99.60
52044;DHT22;38053;53.100;6.078;2023-07-02T15:17:52;18.60;99.90
52044;DHT22;38053;53.100;6.078;2023-07-02T15:20:17;18.30;99.90
52044;DHT22;38053;53.100;6.078;2023-07-02T15:22:43;18.30;99.90
52044;DHT22;38053;53.100;6.078;2023-07-02T15:25:09;18.30;99.90
52044;DHT22;38053;53.100;6.078;2023-07-02T15:27:35;18.20;99.90
52044;DHT22;38053;53.100;6.078;2023-07-02T15:30:00;18.20;99.90
52044;DHT22;38053;53.100;6.078;2023-07-02T15:32:26;18.20;99.90